Home > Products > Valid Products > MTR

000
SAUS41 KOKX 251657
MTRMTP
METAR KMTP 251654Z AUTO 26009G16KT 16/07 A2976 RMK AO1 SLP076
T01610072





000
SAUS41 KOKX 251652
MTRNYC
METAR KNYC 251651Z AUTO VRB03KT 10SM CLR 17/05 A2980 RMK AO2 SLP081
T01720050 $





000
SAUS41 KOKX 251557
MTRMTP
METAR KMTP 251554Z AUTO 27010G17KT 15/06 A2978 RMK AO1 SLP084
T01500061





000
SAUS41 KOKX 251552
MTRNYC
METAR KNYC 251551Z AUTO 26006KT 10SM CLR 16/04 A2984 RMK AO2 SLP095
T01560044 $





000
SAUS41 KOKX 251457
MTRMTP
METAR KMTP 251454Z AUTO 27008KT 14/06 A2980 RMK AO1 SLP090 T01440061
58010





000
SAUS41 KOKX 251452
MTRNYC
METAR KNYC 251451Z AUTO 29003KT 10SM CLR 14/04 A2987 RMK AO2 SLP105
T01390039 57009 $





000
SAUS41 KOKX 251357
MTRMTP
METAR KMTP 251354Z AUTO 28006G15KT 14/07 A2981 RMK AO1 SLP095
T01390067





000
SAUS41 KOKX 251352
MTRNYC
METAR KNYC 251351Z AUTO 00000KT 10SM CLR 12/03 A2987 RMK AO2 SLP107
T01220033 $





000
SAUS41 KOKX 251257
MTRMTP
METAR KMTP 251254Z AUTO 27007KT 13/07 A2983 RMK AO1 SLP099 T01330072





000
SAUS41 KOKX 251252
MTRNYC
METAR KNYC 251251Z AUTO 00000KT 10SM CLR 11/02 A2989 RMK AO2 SLP113
T01110022 $





000
SAUS41 KOKX 251157
MTRMTP
METAR KMTP 251154Z AUTO 26008KT 12/07 A2983 RMK AO1 SLP100 70001
T01220072 10122 20117 50005





000
SAUS41 KOKX 251157
MTRMTP
METAR KMTP 251154Z AUTO 26008KT 12/07 A2983 RMK AO1 SLP100 70001
T01220072 10122 20117 50005





000
SAUS41 KOKX 251153
MTRNYC
METAR KNYC 251151Z AUTO 29005KT 10SM CLR 11/02 A2989 RMK AO2 SLP115
T01060022 10128 20100 51003 $





000
SAUS41 KOKX 251153
MTRNYC
METAR KNYC 251151Z AUTO 29005KT 10SM CLR 11/02 A2989 RMK AO2 SLP115
T01060022 10128 20100 51003 $





000
SAUS41 KOKX 251057
MTRMTP
METAR KMTP 251054Z AUTO 29006KT 12/07 A2983 RMK AO1 SLP101 T01170072





000
SAUS41 KOKX 251057
MTRMTP
METAR KMTP 251054Z AUTO 29006KT 12/07 A2983 RMK AO1 SLP101 T01170072





000
SAUS41 KOKX 251052
MTRNYC
METAR KNYC 251051Z AUTO 29006KT 10SM CLR 11/02 A2988 RMK AO2 SLP111
T01060022 $





000
SAUS41 KOKX 251052
MTRNYC
METAR KNYC 251051Z AUTO 29006KT 10SM CLR 11/02 A2988 RMK AO2 SLP111
T01060022 $





000
SAUS41 KOKX 250957
MTRMTP
METAR KMTP 250954Z AUTO 31007KT 12/06 A2982 RMK AO1 SLP098 T01170061





000
SAUS41 KOKX 250952
MTRNYC
METAR KNYC 250951Z AUTO 28006KT 10SM CLR 11/02 A2990 RMK AO2 SLP114
T01060022 $





000
SAUS41 KOKX 250857
MTRMTP
METAR KMTP 250854Z AUTO 31009KT 12/06 A2981 RMK AO1 SLP095 T01170061
53005





000
SAUS41 KOKX 250852
MTRNYC
METAR KNYC 250851Z AUTO VRB06KT 10SM CLR 12/02 A2988 RMK AO2 SLP110
T01170022 51002 $





000
SAUS41 KOKX 250757
MTRMTP
METAR KMTP 250754Z AUTO 32011KT 12/06 A2981 RMK AO1 SLP093 T01220061





000
SAUS41 KOKX 250752
MTRNYC
METAR KNYC 250751Z AUTO 30004KT 10SM CLR 12/03 A2988 RMK AO2 SLP109
T01170028 $





000
SAUS41 KOKX 250657
MTRMTP
METAR KMTP 250654Z AUTO 33010KT 12/06 A2980 RMK AO1 SLP091 T01220061





000
SAUS41 KOKX 250653
MTRNYC
METAR KNYC 250651Z AUTO 30007KT 10SM CLR 12/02 A2989 RMK AO2 SLP111
T01220022 $





000
SAUS41 KOKX 250558
MTRMTP
METAR KMTP 250554Z AUTO 32012G18KT 12/07 A2980 RMK AO1 SLP090
T01220072 10128 20122 51002





000
SAUS41 KOKX 250553
MTRNYC
METAR KNYC 250551Z AUTO 30005KT 10SM CLR 13/02 A2988 RMK AO2 SLP109
T01280017 10150 20122 53005 $





000
SAUS41 KOKX 250457
MTRMTP
METAR KMTP 250454Z AUTO 32010G17KT 13/07 A2980 RMK AO1 SLP090
T01280072 401330106





000
SAUS41 KOKX 250453
MTRNYC
METAR KNYC 250451Z AUTO VRB03KT 10SM CLR 13/02 A2987 RMK AO2 SLP106
T01280022 401720106 $





000
SAUS41 KOKX 250357
MTRMTP
METAR KMTP 250354Z AUTO 32013G20KT 13/07 A2980 RMK AO1 SLP090
T01280072





000
SAUS41 KOKX 250357
MTRMTP
METAR KMTP 250354Z AUTO 32013G20KT 13/07 A2980 RMK AO1 SLP090
T01280072





000
SAUS41 KOKX 250353
MTRNYC
METAR KNYC 250351Z AUTO VRB06KT 10SM CLR 14/03 A2987 RMK AO2 SLP104
T01390033 $





000
SAUS41 KOKX 250353
MTRNYC
METAR KNYC 250351Z AUTO VRB06KT 10SM CLR 14/03 A2987 RMK AO2 SLP104
T01390033 $





000
SAUS41 KOKX 250257
MTRMTP
METAR KMTP 250254Z AUTO 32011G18KT 12/07 A2979 RMK AO1 SLP088
T01220067 53006





000
SAUS41 KOKX 250252
MTRNYC
METAR KNYC 250251Z AUTO 30006KT 10SM CLR 14/04 A2986 RMK AO2 SLP103
T01440044 52012 $





000
SAUS41 KOKX 250157
MTRMTP
METAR KMTP 250154Z AUTO 32011G16KT 12/06 A2978 RMK AO1 SLP085
T01220061





000
SAUS41 KOKX 250152
MTRNYC
METAR KNYC 250151Z AUTO 30006KT 10SM CLR 14/06 A2985 RMK AO2 SLP099
T01440061 $





000
SAUS41 KOKX 250057
MTRMTP
METAR KMTP 250054Z AUTO 33009G19KT 12/06 A2978 RMK AO1 SLP084
T01220061





000
SAUS41 KOKX 250052
MTRNYC
METAR KNYC 250051Z AUTO 00000KT 10SM CLR 13/08 A2984 RMK AO2 SLP096
T01330078 $





000
SAUS41 KOKX 242357
MTRMTP
METAR KMTP 242354Z AUTO 32014G20KT 12/06 A2977 RMK AO1 SLP081
T01220061 10133 20122 51008





000
SAUS41 KOKX 242352
MTRNYC
METAR KNYC 242351Z AUTO 00000KT 10SM CLR 13/08 A2983 RMK AO2 SLP092
T01330078 10172 20133 53013 $





000
SAUS41 KOKX 242257
MTRMTP
METAR KMTP 242254Z AUTO 33012G20KT 13/06 A2977 RMK AO1 SLP080
T01280061





000
SAUS41 KOKX 242252
MTRNYC
METAR KNYC 242251Z AUTO 00000KT 10SM FEW060 14/07 A2982 RMK AO2
SLP088 T01390072 $





000
SAUS41 KOKX 242157
MTRMTP
METAR KMTP 242154Z AUTO 31010KT 13/07 A2976 RMK AO1 SLP075 T01280067





000
SAUS41 KOKX 242152
MTRNYC
METAR KNYC 242151Z AUTO 08003KT 10SM CLR 14/07 A2979 RMK AO2 SLP079
T01440072 $





000
SAUS41 KOKX 242057
MTRMTP
METAR KMTP 242054Z AUTO 31009G16KT 13/07 A2975 RMK AO1 SLP073
T01330067 51009





000
SAUS41 KOKX 242053
MTRNYC
METAR KNYC 242051Z AUTO VRB05KT 10SM OVC050 17/07 A2979 RMK AO2
SLP079 T01720067 55004 $





000
SAUS41 KOKX 241957
MTRMTP
METAR KMTP 241954Z AUTO 31008KT 13/07 A2974 RMK AO1 SLP071 T01330067





000
SAUS41 KOKX 241957
MTRMTP
METAR KMTP 241954Z AUTO 31008KT 13/07 A2974 RMK AO1 SLP071 T01330067





000
SAUS41 KOKX 241953
MTRNYC
METAR KNYC 241951Z AUTO VRB05KT 10SM OVC048 17/07 A2979 RMK AO2
SLP078 T01670067 $





000
SAUS41 KOKX 241953
MTRNYC
METAR KNYC 241951Z AUTO VRB05KT 10SM OVC048 17/07 A2979 RMK AO2
SLP078 T01670067 $





000
SAUS41 KOKX 241857
MTRMTP
METAR KMTP 241854Z AUTO 33010KT 13/07 A2973 RMK AO1 SLP068 T01280072





000
SAUS41 KOKX 241852
MTRNYC
METAR KNYC 241851Z AUTO 00000KT 10SM OVC046 16/06 A2979 RMK AO2
SLP079 T01610061 $





000
SAUS41 KOKX 241757
MTRMTP
METAR KMTP 241754Z AUTO 30009KT 13/07 A2972 RMK AO1 SLP064 60001
T01280072 10133 20106 58007





000
SAUS41 KOKX 241753
MTRNYC
METAR KNYC 241751Z AUTO VRB06KT 10SM OVC038 15/06 A2980 RMK AO2
SLP083 T01500061 10156 20111 58014 $





000
SAUS41 KOKX 241657
MTRMTP
METAR KMTP 241654Z AUTO 34011KT 13/07 A2973 RMK AO1 SLP066 T01280072





000
SAUS41 KOKX 241652
MTRNYC
METAR KNYC 241651Z AUTO 30006KT 10SM OVC036 14/06 A2981 RMK AO2
SLP086 T01440056 $





000
SAUS41 KOKX 241557
MTRMTP
METAR KMTP 241554Z AUTO 32012G18KT 12/08 A2975 RMK AO1 SLP073
T01220078





000
SAUS41 KOKX 241552
MTRNYC
METAR KNYC 241551Z AUTO 10SM BKN037 14/05 A2984 RMK AO2 SLP095
T01390050 $





000
SAUS41 KOKX 241458
MTRMTP
METAR KMTP 241454Z AUTO 32010G18KT 12/08 A2974 RMK AO1 SLP071 60001
T01170083 58001





000
SAUS41 KOKX 241452
MTRNYC
METAR KNYC 241451Z AUTO VRB04KT 10SM FEW035 13/06 A2984 RMK AO2
SLP097 T01330056 50004 $





000
SAUS41 KOKX 241359
MTRNYC

METAR KNYC 241351Z AUTO 30006KT 10SM FEW025 BKN033 12/06 A2985 RMK
AO2      SLP098 T01220061 $








000
SAUS41 KOKX 241357
MTRMTP
METAR KMTP 241354Z AUTO 33012G18KT 11/08 A2975 RMK AO1 SLP074
T01110083





000
SAUS41 KOKX 241257
MTRMTP
METAR KMTP 241254Z AUTO 32010G18KT 11/08 A2975 RMK AO1 SLP072 P0001
T01110083





000
SAUS41 KOKX 241253
MTRNYC
METAR KNYC 241251Z AUTO 30006KT 10SM SCT023 BKN036 12/06 A2985 RMK
AO2 SLP098 T01170061 $





000
SAUS41 KOKX 241157
MTRMTP
METAR KMTP 241154Z AUTO 32012G19KT 11/09 A2974 RMK AO1 SLP072 P0002
60002 70008 T01110089 10128 20111 51018





000
SAUS41 KOKX 241152
MTRNYC
METAR KNYC 241151Z AUTO 10SM SCT022 BKN033 11/06 A2983 RMK AO2
SLP094 70039 T01060061 10111 20106 53007 $





000
SAUS41 KOKX 241057
MTRMTP
METAR KMTP 241054Z AUTO 32009G18KT 12/08 A2973 RMK AO1 SLP066
T01220083





000
SAUS41 KOKX 241057
MTRMTP
METAR KMTP 241054Z AUTO 32009G18KT 12/08 A2973 RMK AO1 SLP066
T01220083





000
SAUS41 KOKX 241053
MTRNYC
METAR KNYC 241051Z AUTO VRB05KT 10SM BKN100 11/06 A2983 RMK AO2
SLP092 T01060056 $





000
SAUS41 KOKX 241053
MTRNYC
METAR KNYC 241051Z AUTO VRB05KT 10SM BKN100 11/06 A2983 RMK AO2
SLP092 T01060056 $





000
SAUS41 KOKX 240957
MTRMTP
METAR KMTP 240954Z AUTO 33014G19KT 12/09 A2972 RMK AO1 SLP063
T01220089





000
SAUS41 KOKX 240957
MTRMTP
METAR KMTP 240954Z AUTO 33014G19KT 12/09 A2972 RMK AO1 SLP063
T01220089





000
SAUS41 KOKX 240953
MTRNYC
METAR KNYC 240951Z AUTO VRB04KT 10SM BKN095 11/06 A2981 RMK AO2
SLP088 T01060056 $





000
SAUS41 KOKX 240857
MTRMTP
METAR KMTP 240854Z AUTO 34012G19KT 12/09 A2969 RMK AO1 SLP054
T01220094 53007





000
SAUS41 KOKX 240852
MTRNYC
METAR KNYC 240851Z AUTO 29003KT 10SM SCT044 11/06 A2981 RMK AO2
SLP086 T01060056 51007 $





000
SAUS41 KOKX 240757
MTRMTP
METAR KMTP 240754Z AUTO 34011G18KT 12/09 A2968 RMK AO1 SLP051
T01220094





000
SAUS41 KOKX 240753
MTRNYC
METAR KNYC 240751Z AUTO VRB05KT 10SM FEW028 BKN070 11/06 A2981 RMK
AO2 SLP086 T01110056 $





000
SAUS41 KOKX 240658
MTRMTP
METAR KMTP 240654Z AUTO 33011G19KT 12/09 A2968 RMK AO1 SLP048
T01220094





000
SAUS41 KOKX 240652
MTRNYC
METAR KNYC 240651Z AUTO 10SM FEW027 OVC065 11/06 A2980 RMK AO2
SLP083 T01110056 $





000
SAUS41 KOKX 240557
MTRMTP
METAR KMTP 240554Z AUTO 34014G20KT 13/09 A2967 RMK AO1 SLP047 60005
T01280094 10133 20128 50007





000
SAUS41 KOKX 240553
MTRNYC
METAR KNYC 240551Z AUTO VRB04KT 10SM FEW026 OVC080 11/06 A2979 RMK
AO2 SLP079 T01110061 10117 20111 56006 $





000
SAUS41 KOKX 240457
MTRMTP
METAR KMTP 240454Z AUTO 35012G21KT 13/09 A2967 RMK AO1 SLP047
T01280094 401500117





000
SAUS41 KOKX 240457
MTRMTP
METAR KMTP 240454Z AUTO 35012G21KT 13/09 A2967 RMK AO1 SLP047
T01280094 401500117





000
SAUS41 KOKX 240453
MTRNYC
METAR KNYC 240451Z AUTO VRB06KT 10SM FEW041 OVC070 11/06 A2979 RMK
AO2 SLP079 T01110061 401170100 $





000
SAUS41 KOKX 240453
MTRNYC
METAR KNYC 240451Z AUTO VRB06KT 10SM FEW041 OVC070 11/06 A2979 RMK
AO2 SLP079 T01110061 401170100 $





000
SAUS41 KOKX 240357
MTRMTP
METAR KMTP 240354Z AUTO 35012G22KT 13/10 A2966 RMK AO1 SLP042
T01280100





000
SAUS41 KOKX 240357
MTRMTP
METAR KMTP 240354Z AUTO 35012G22KT 13/10 A2966 RMK AO1 SLP042
T01280100





000
SAUS41 KOKX 240352
MTRNYC
METAR KNYC 240351Z AUTO 34006KT 10SM FEW024 OVC035 12/06 A2980 RMK
AO2 SLP083 T01170061 $





000
SAUS41 KOKX 240352
MTRNYC
METAR KNYC 240351Z AUTO 34006KT 10SM FEW024 OVC035 12/06 A2980 RMK
AO2 SLP083 T01170061 $





000
SAUS41 KOKX 240309
MTRNYC
SPECI KNYC 240308Z AUTO VRB04KT 10SM SCT024 OVC037 12/07 A2980 RMK
AO2 T01170067 $





000
SAUS41 KOKX 240309
MTRNYC
SPECI KNYC 240308Z AUTO VRB04KT 10SM SCT024 OVC037 12/07 A2980 RMK
AO2 T01170067 $





000
SAUS41 KOKX 240257
MTRMTP
METAR KMTP 240254Z AUTO 34015G24KT 13/10 A2965 RMK AO1 SLP040 60005
T01280100 52011





000
SAUS41 KOKX 240257
MTRMTP
METAR KMTP 240254Z AUTO 34015G24KT 13/10 A2965 RMK AO1 SLP040 60005
T01280100 52011





000
SAUS41 KOKX 240252
MTRNYC
METAR KNYC 240251Z AUTO VRB04KT 10SM BKN024 OVC035 12/07 A2981 RMK
AO2 SLP085 T01170072 50005 $





000
SAUS41 KOKX 240252
MTRNYC
METAR KNYC 240251Z AUTO VRB04KT 10SM BKN024 OVC035 12/07 A2981 RMK
AO2 SLP085 T01170072 50005 $





000
SAUS41 KOKX 240242
MTRNYC
SPECI KNYC 240241Z AUTO 00000KT 10SM BKN024 OVC035 12/07 A2981 RMK
AO2 T01170067 $





000
SAUS41 KOKX 240242
MTRNYC
SPECI KNYC 240241Z AUTO 00000KT 10SM BKN024 OVC035 12/07 A2981 RMK
AO2 T01170067 $





000
SAUS41 KOKX 240230
MTRNYC
SPECI KNYC 240228Z AUTO VRB05KT 10SM SCT022 OVC034 12/07 A2981 RMK
AO2 T01170072 $





000
SAUS41 KOKX 240230
MTRNYC
SPECI KNYC 240228Z AUTO VRB05KT 10SM SCT022 OVC034 12/07 A2981 RMK
AO2 T01170072 $





000
SAUS41 KOKX 240157
MTRMTP
METAR KMTP 240154Z AUTO 35013G21KT 13/11 A2964 RMK AO1 SLP036 P0001
T01280106





000
SAUS41 KOKX 240157
MTRMTP
METAR KMTP 240154Z AUTO 35013G21KT 13/11 A2964 RMK AO1 SLP036 P0001
T01280106





000
SAUS41 KOKX 240152
MTRNYC
METAR KNYC 240151Z AUTO 10SM BKN022 OVC035 11/07 A2981 RMK AO2
SLP085 T01110072 $





000
SAUS41 KOKX 240152
MTRNYC
METAR KNYC 240151Z AUTO 10SM BKN022 OVC035 11/07 A2981 RMK AO2
SLP085 T01110072 $





000
SAUS41 KOKX 240057
MTRMTP
METAR KMTP 240054Z AUTO 35014G22KT 13/11 A2963 RMK AO1 SLP032 P0004
T01280111





000
SAUS41 KOKX 240053
MTRNYC
METAR KNYC 240051Z AUTO VRB04KT 10SM FEW015 FEW030 OVC035 11/08
A2980 RMK AO2 SLP081 T01110078 $





000
SAUS41 KOKX 240018
MTRNYC
SPECI KNYC 240016Z AUTO VRB06KT 10SM SCT021 OVC036 12/08 A2979 RMK
AO2 T01170078 $





000
SAUS41 KOKX 232357
MTRMTP
METAR KMTP 232354Z AUTO 34014G24KT 13/11 A2962 RMK AO1 SLP028 60001
T01330111 10150 20133 53017





000
SAUS41 KOKX 232352
MTRNYC
METAR KNYC 232351Z AUTO VRB05KT 10SM FEW013 OVC022 11/08 A2979 RMK
AO2 SLP079 60007 T01110083 10117 20106 53020 $





000
SAUS41 KOKX 232257
MTRMTP
METAR KMTP 232254Z AUTO 35015G24KT 13/11 A2960 RMK AO1 SLP023
T01330106





000
SAUS41 KOKX 232253
MTRNYC
METAR KNYC 232251Z AUTO 31008G16KT 280V350 10SM SCT016 BKN023 OVC035
11/08 A2977 RMK AO2 SLP072 T01110083 $





000
SAUS41 KOKX 232244
MTRNYC
SPECI KNYC 232243Z AUTO 30009G15KT 10SM SCT015 BKN020 OVC035 12/08
A2977 RMK AO2 T01170083 $





000
SAUS41 KOKX 232157
MTRMTP
METAR KMTP 232154Z AUTO 34016G23KT 14/11 A2958 RMK AO1 SLP017 P0001
T01440111





000
SAUS41 KOKX 232152
MTRNYC
METAR KNYC 232151Z AUTO VRB06KT 10SM OVC034 12/08 A2975 RMK AO2
SLP066 T01170083 $





000
SAUS41 KOKX 232152
MTRNYC
METAR KNYC 232151Z AUTO VRB06KT 10SM OVC034 12/08 A2975 RMK AO2
SLP066 T01170083 $





000
SAUS41 KOKX 232128
MTRNYC
SPECI KNYC 232127Z AUTO VRB04KT 10SM FEW025 OVC032 12/08 A2975 RMK
AO2 T01170083 $





000
SAUS41 KOKX 232057
MTRMTP
METAR KMTP 232054Z AUTO 35012G20KT 15/11 A2957 RMK AO1 SLP012
T01500111 53001





000
SAUS41 KOKX 232052
MTRNYC
METAR KNYC 232051Z AUTO VRB06KT 10SM OVC025 12/08 A2973 RMK AO2
SLP059 60007 T01170078 55001 $





000
SAUS41 KOKX 231957
MTRMTP
METAR KMTP 231954Z AUTO 36010G23KT 14/11 A2956 RMK AO1 SLP008
T01440111





000
SAUS41 KOKX 231957
MTRMTP
METAR KMTP 231954Z AUTO 36010G23KT 14/11 A2956 RMK AO1 SLP008
T01440111





000
SAUS41 KOKX 231953
MTRNYC
METAR KNYC 231951Z AUTO VRB04KT 10SM BKN024 BKN030 OVC043 11/08
A2972 RMK AO2 RAE26 SLP057 P0001 T01060083 $





000
SAUS41 KOKX 231953
MTRNYC
METAR KNYC 231951Z AUTO VRB04KT 10SM BKN024 BKN030 OVC043 11/08
A2972 RMK AO2 RAE26 SLP057 P0001 T01060083 $





000
SAUS41 KOKX 231920
MTRNYC
SPECI KNYC 231919Z AUTO VRB05G15KT 8SM -RA BKN015 BKN021 OVC028
11/08 A2972 RMK AO2 P0001 T01060083 $





000
SAUS41 KOKX 231920
MTRNYC
SPECI KNYC 231919Z AUTO VRB05G15KT 8SM -RA BKN015 BKN021 OVC028
11/08 A2972 RMK AO2 P0001 T01060083 $





000
SAUS41 KOKX 231857
MTRMTP
METAR KMTP 231854Z AUTO 35012G19KT 14/11 A2957 RMK AO1 SLP012
T01440106





000
SAUS41 KOKX 231857
MTRMTP
METAR KMTP 231854Z AUTO 35012G19KT 14/11 A2957 RMK AO1 SLP012
T01440106





000
SAUS41 KOKX 231852
MTRNYC
METAR KNYC 231851Z AUTO 02009G15KT 340V040 3SM -RA BR BKN014 OVC019
11/08 A2973 RMK AO2 SLP059 P0006 T01060083 $





000
SAUS41 KOKX 231852
MTRNYC
METAR KNYC 231851Z AUTO 02009G15KT 340V040 3SM -RA BR BKN014 OVC019
11/08 A2973 RMK AO2 SLP059 P0006 T01060083 $





000
SAUS41 KOKX 231755
MTRMTP
METAR KMTP 231754Z AUTO 35014G20KT 15/11 A2956 RMK AO1 SLP011
T01500106 10150 20128 58011





000
SAUS41 KOKX 231755
MTRMTP
METAR KMTP 231754Z AUTO 35014G20KT 15/11 A2956 RMK AO1 SLP011
T01500106 10150 20128 58011





000
SAUS41 KOKX 231752
MTRNYC
METAR KNYC 231751Z AUTO VRB04KT 7SM -RA BKN014 BKN020 OVC032 11/09
A2973 RMK AO2 SLP060 P0003 60032 T01060089 10106 20100 58004 $





000
SAUS41 KOKX 231752
MTRNYC
METAR KNYC 231751Z AUTO VRB04KT 7SM -RA BKN014 BKN020 OVC032 11/09
A2973 RMK AO2 SLP060 P0003 60032 T01060089 10106 20100 58004 $





000
SAUS41 KOKX 231723
MTRNYC
SPECI KNYC 231722Z AUTO 34007KT 290V030 3SM -RA BR BKN010 OVC015
11/08 A2973 RMK AO2 P0002 T01060083 $





000
SAUS41 KOKX 231708
MTRNYC
SPECI KNYC 231706Z AUTO 03007KT 320V090 2SM -RA BR BKN011 OVC017
10/08 A2973 RMK AO2 P0001 T01000083 $





000
SAUS41 KOKX 231708
MTRNYC
SPECI KNYC 231706Z AUTO 03007KT 320V090 2SM -RA BR BKN011 OVC017
10/08 A2973 RMK AO2 P0001 T01000083 $





000
SAUS41 KOKX 231655
MTRMTP
METAR KMTP 231654Z AUTO 01013G20KT 14/11 A2957 RMK AO1 SLP014
T01440106





000
SAUS41 KOKX 231655
MTRMTP
METAR KMTP 231654Z AUTO 01013G20KT 14/11 A2957 RMK AO1 SLP014
T01440106





000
SAUS41 KOKX 231652
MTRNYC
METAR KNYC 231651Z AUTO VRB04KT 4SM -RA BR BKN013 BKN017 OVC024
11/09 A2974 RMK AO2 SLP061 P0006 T01060089 $





000
SAUS41 KOKX 231652
MTRNYC
METAR KNYC 231651Z AUTO VRB04KT 4SM -RA BR BKN013 BKN017 OVC024
11/09 A2974 RMK AO2 SLP061 P0006 T01060089 $





000
SAUS41 KOKX 231555
MTRMTP
METAR KMTP 231554Z AUTO 01013G23KT 14/10 A2959 RMK AO1 SLP021
T01440100





000
SAUS41 KOKX 231552
MTRNYC
METAR KNYC 231551Z AUTO 3SM -RA BR SCT012 OVC019 10/08 A2975 RMK AO2
SLP066 P0005 T01000078 $





000
SAUS41 KOKX 231455
MTRMTP
METAR KMTP 231454Z AUTO 01012G22KT 14/10 A2960 RMK AO1 PK WND
01026/1402 SLP021 T01390100 51008





000
SAUS41 KOKX 231452
MTRNYC
METAR KNYC 231451Z AUTO 36009G15KT 5SM -RA BR OVC017 11/08 A2975 RMK
AO2 RAB06 SLP064 P0001 60018 T01060083 53006 $





000
SAUS41 KOKX 231452
MTRNYC
METAR KNYC 231451Z AUTO 36009G15KT 5SM -RA BR OVC017 11/08 A2975 RMK
AO2 RAB06 SLP064 P0001 60018 T01060083 53006 $





000
SAUS41 KOKX 231355
MTRMTP
METAR KMTP 231354Z AUTO 02015G22KT 13/10 A2959 RMK AO1 SLP021
T01330100





000
SAUS41 KOKX 231352
MTRNYC
METAR KNYC 231351Z AUTO 36008KT 10SM OVC016 10/08 A2973 RMK AO2
RAE51 SLP061 P0005 T01000083 $





000
SAUS41 KOKX 231325
MTRNYC
SPECI KNYC 231324Z AUTO 3SM -RA BR OVC011 10/08 A2973 RMK AO2 P0004
T01000083 $





000
SAUS41 KOKX 231255
MTRMTP
METAR KMTP 231254Z AUTO 01012G20KT 13/11 A2959 RMK AO1 PK WND
02028/1201 SLP019 T01330106





000
SAUS41 KOKX 231250
MTRNYC
METAR KNYC 231249Z AUTO 34007KT 290V040 2 1/2SM -RA BR BKN013 OVC018
10/08 A2973 RMK AO2 SLP060 P0012 T01000083 $





000
SAUS41 KOKX 231233
MTRNYC
SPECI KNYC 231231Z AUTO VRB06KT 3SM RA BR BKN015 OVC020 10/08 A2973
RMK AO2 P0008 T01000083 $





000
SAUS41 KOKX 231216
MTRNYC
SPECI KNYC 231215Z AUTO VRB04G15KT 2 1/2SM RA BR OVC015 10/08 A2973
RMK AO2 P0005 T01000083 $





000
SAUS41 KOKX 231155
MTRMTP
METAR KMTP 231154Z AUTO 02016G27KT 13/11 A2957 RMK AO1 PK WND
02030/1104 SLP014 P0012 60015 70177 T01280106 10133 20117 55012





000
SAUS41 KOKX 231153
MTRNYC
METAR KNYC 231151Z AUTO VRB06KT 4SM -RA BR OVC019 10/08 A2973 RMK
AO2 RAB03 SLP059 P0005 60022 70123 T01000083 10117 20100 51000 $





000
SAUS41 KOKX 231055
MTRMTP
METAR KMTP 231054Z AUTO 01018G32KT 12/10 A2957 RMK AO1 PK WND
02033/1043 SLP013 T01220100





000
SAUS41 KOKX 231053
MTRNYC
METAR KNYC 231051Z AUTO 01008KT 330V030 10SM OVC016 11/08 A2973 RMK
AO2 RAB0956E50 SLP059 P0003 T01060083 $





000
SAUS41 KOKX 230955
MTRMTP
METAR KMTP 230954Z AUTO 01017G26KT 12/09 A2958 RMK AO1 PK WND
01032/0912 SLP018 P0001 T01220094





000
SAUS41 KOKX 230955
MTRMTP
METAR KMTP 230954Z AUTO 01017G26KT 12/09 A2958 RMK AO1 PK WND
01032/0912 SLP018 P0001 T01220094





000
SAUS41 KOKX 230953
MTRNYC
METAR KNYC 230951Z AUTO VRB05KT 10SM OVC016 11/08 A2973 RMK AO2
RAE49 SLP061 P0008 T01060083 $





000
SAUS41 KOKX 230953
MTRNYC
METAR KNYC 230951Z AUTO VRB05KT 10SM OVC016 11/08 A2973 RMK AO2
RAE49 SLP061 P0008 T01060083 $





000
SAUS41 KOKX 230945
MTRNYC
SPECI KNYC 230944Z AUTO 36007KT 320V030 9SM -RA OVC015 11/08 A2974
RMK AO2 P0008 T01060083 $





000
SAUS41 KOKX 230945
MTRNYC
SPECI KNYC 230944Z AUTO 36007KT 320V030 9SM -RA OVC015 11/08 A2974
RMK AO2 P0008 T01060083 $





000
SAUS41 KOKX 230937 COR
MTRNYC
SPECI KNYC 230934Z AUTO VRB05G16KT 5SM -RA BR OVC014 11/08 A2973 RMK
AO2 P0007 T01060083 $





000
SAUS41 KOKX 230936 COR
MTRNYC
SPECI KNYC 230934Z AUTO VRB05G16KT 5SM -RA BR OVC014 11/08 A2973 RMK
AO2 P0007 T01060083 $





000
SAUS41 KOKX 230855
MTRMTP
METAR KMTP 230854Z AUTO 01015G26KT 12/09 A2961 RMK AO1 PK WND
02030/0817 SLP025 60002 T01220094 56004





000
SAUS41 KOKX 230852
MTRNYC
METAR KNYC 230851Z AUTO 02009G16KT 340V080 8SM -RA BKN017 OVC026
11/08 A2973 RMK AO2 SLP058 P0006 60006 T01060083 56006 $





000
SAUS41 KOKX 230755
MTRMTP
METAR KMTP 230754Z AUTO 02017G29KT 13/11 A2961 RMK AO1 PK WND
02032/0659 SLP027 P0002 T01280106





000
SAUS41 KOKX 230752
MTRNYC
METAR KNYC 230751Z AUTO 04007G18KT 330V080 10SM -RA OVC018 11/08
A2973 RMK AO2 RAB49 SLP058 P0000 T01110078 $





000
SAUS41 KOKX 230752
MTRNYC
METAR KNYC 230751Z AUTO 04007G18KT 330V080 10SM -RA OVC018 11/08
A2973 RMK AO2 RAB49 SLP058 P0000 T01110078 $





000
SAUS41 KOKX 230655
MTRMTP
METAR KMTP 230654Z AUTO 02019G35KT 13/11 A2960 RMK AO1 PK WND
01035/0651 SLP024 T01330106





000
SAUS41 KOKX 230652
MTRNYC
METAR KNYC 230651Z AUTO 02009G20KT 350V070 10SM OVC018 12/08 A2974
RMK AO2 SLP061 T01170078 $





000
SAUS41 KOKX 230555
MTRMTP
METAR KMTP 230554Z AUTO 01019G28KT 13/11 A2962 RMK AO1 PK WND
01035/0519 PRESFR SLP029 P0001 60112 T01330111 10144 20128 58014





000
SAUS41 KOKX 230553
MTRNYC
METAR KNYC 230551Z AUTO 02007G20KT 320V060 10SM OVC020 11/08 A2975
RMK AO2 SLP063 60044 T01110078 10111 20100 56009 $





000
SAUS41 KOKX 230553
MTRNYC
METAR KNYC 230551Z AUTO 02007G20KT 320V060 10SM OVC020 11/08 A2975
RMK AO2 SLP063 60044 T01110078 10111 20100 56009 $





000
SAUS41 KOKX 230455
MTRMTP
METAR KMTP 230454Z AUTO 01018G27KT 13/11 A2965 RMK AO1 PK WND
01031/0439 SLP040 P0002 T01280111 401560122





000
SAUS41 KOKX 230455
MTRMTP
METAR KMTP 230454Z AUTO 01018G27KT 13/11 A2965 RMK AO1 PK WND
01031/0439 SLP040 P0002 T01280111 401560122





000
SAUS41 KOKX 230453
MTRNYC
METAR KNYC 230451Z AUTO 04010G22KT 360V070 10SM BKN018 BKN024 OVC032
11/08 A2975 RMK AO2 SLP067 T01060083 401440100 $





000
SAUS41 KOKX 230453
MTRNYC
METAR KNYC 230451Z AUTO 04010G22KT 360V070 10SM BKN018 BKN024 OVC032
11/08 A2975 RMK AO2 SLP067 T01060083 401440100 $





000
SAUS41 KOKX 230401
MTRNYC
SPECI KNYC 230400Z AUTO 10SM OVC018 11/08 A2976 RMK AO2 T01060083 $





000
SAUS41 KOKX 230355
MTRMTP
METAR KMTP 230354Z AUTO 01012G21KT 13/12 A2967 RMK AO1 PK WND
02030/0309 SLP046 P0032 T01330117





000
SAUS41 KOKX 230355
MTRMTP
METAR KMTP 230354Z AUTO 01012G21KT 13/12 A2967 RMK AO1 PK WND
02030/0309 SLP046 P0032 T01330117





000
SAUS41 KOKX 230352
MTRNYC
METAR KNYC 230351Z AUTO 05010G19KT 020V080 10SM BKN014 OVC020 11/08
A2976 RMK AO2 RAE42 SLP069 P0014 T01060083 $





000
SAUS41 KOKX 230352
MTRNYC
METAR KNYC 230351Z AUTO 05010G19KT 020V080 10SM BKN014 OVC020 11/08
A2976 RMK AO2 RAE42 SLP069 P0014 T01060083 $





000
SAUS41 KOKX 230328
MTRNYC
SPECI KNYC 230327Z AUTO 03009G16KT 340V080 5SM -RA BR BKN014 BKN022
OVC046 10/08 A2975 RMK AO2 P0014 T01000083 $





000
SAUS41 KOKX 230313
MTRNYC
SPECI KNYC 230311Z AUTO VRB06G21KT 3SM RA BR BKN015 BKN021 OVC044
10/08 A2976 RMK AO2 P0009 T01000083 $





000
SAUS41 KOKX 230308
MTRNYC
SPECI KNYC 230307Z AUTO 01010G21KT 330V040 2 1/2SM RA BR BKN014
BKN022 OVC044 10/08 A2976 RMK AO2 P0008 T01000083 $





000
SAUS41 KOKX 230255
MTRMTP
METAR KMTP 230254Z AUTO 04012G22KT 14/11 A2966 RMK AO1 PK WND
06030/0238 SLP043 P0011 60077 T01390111 53003





000
SAUS41 KOKX 230252
MTRNYC
METAR KNYC 230251Z AUTO 02011G23KT 2 1/2SM +RA BR BKN016 OVC023
10/08 A2977 RMK AO2 RAE0152B06 SLP073 P0011 60030 T01000083 56014 $





000
SAUS41 KOKX 230204
MTRNYC
SPECI KNYC 230203Z AUTO 36007KT 290V060 10SM SCT014 OVC024 11/09
A2977 RMK AO2 RAE0152 P0000 T01060089 $





000
SAUS41 KOKX 230204
MTRNYC
SPECI KNYC 230203Z AUTO 36007KT 290V060 10SM SCT014 OVC024 11/09
A2977 RMK AO2 RAE0152 P0000 T01060089 $





000
SAUS41 KOKX 230155
MTRMTP
METAR KMTP 230154Z AUTO 04012G25KT 14/13 A2966 RMK AO1 PK WND
01032/0056 SLP042 P0046 T01440128





000
SAUS41 KOKX 230155
MTRMTP
METAR KMTP 230154Z AUTO 04012G25KT 14/13 A2966 RMK AO1 PK WND
01032/0056 SLP042 P0046 T01440128





000
SAUS41 KOKX 230153
MTRNYC
METAR KNYC 230151Z AUTO VRB06G16KT 8SM -RA BKN014 OVC023 11/09 A2977
RMK AO2 SLP074 P0009 T01060089 $





000
SAUS41 KOKX 230153
MTRNYC
METAR KNYC 230151Z AUTO VRB06G16KT 8SM -RA BKN014 OVC023 11/09 A2977
RMK AO2 SLP074 P0009 T01060089 $





000
SAUS41 KOKX 230141
MTRNYC
SPECI KNYC 230140Z AUTO VRB05G17KT 4SM -RA BR BKN014 OVC025 11/09
A2978 RMK AO2 P0009 T01060089 $





000
SAUS41 KOKX 230141
MTRNYC
SPECI KNYC 230140Z AUTO VRB05G17KT 4SM -RA BR BKN014 OVC025 11/09
A2978 RMK AO2 P0009 T01060089 $





000
SAUS41 KOKX 230133
MTRNYC
SPECI KNYC 230132Z AUTO 04008KT 350V090 3SM RA BR SCT012 BKN017
OVC025 11/09 A2978 RMK AO2 P0007 T01060089 $





000
SAUS41 KOKX 230133
MTRNYC
SPECI KNYC 230132Z AUTO 04008KT 350V090 3SM RA BR SCT012 BKN017
OVC025 11/09 A2978 RMK AO2 P0007 T01060089 $





000
SAUS41 KOKX 230055
MTRMTP
METAR KMTP 230054Z AUTO 02022G35KT 13/12 A2962 RMK AO1 PK WND
36035/0039 SLP029 P0020 T01330117





000
SAUS41 KOKX 230055
MTRMTP
METAR KMTP 230054Z AUTO 02022G35KT 13/12 A2962 RMK AO1 PK WND
36035/0039 SLP029 P0020 T01330117





000
SAUS41 KOKX 230053
MTRNYC
METAR KNYC 230051Z AUTO 4SM RA BR BKN014 OVC019 11/09 A2979 RMK AO2
SLP080 P0010 T01060089 $





000
SAUS41 KOKX 230053
MTRNYC
METAR KNYC 230051Z AUTO 4SM RA BR BKN014 OVC019 11/09 A2979 RMK AO2
SLP080 P0010 T01060089 $





000
SAUS41 KOKX 230041
MTRNYC
SPECI KNYC 230040Z AUTO VRB06G17KT 4SM RA BR BKN014 OVC021 11/09
A2980 RMK AO2 P0007 T01110089 $





000
SAUS41 KOKX 230041
MTRNYC
SPECI KNYC 230040Z AUTO VRB06G17KT 4SM RA BR BKN014 OVC021 11/09
A2980 RMK AO2 P0007 T01110089 $





000
SAUS41 KOKX 230000
MTRNYC
SPECI KNYC 222359Z AUTO 01007KT 320V050 5SM -RA BR BKN015 OVC023
11/09 A2981 RMK AO2 P0001 T01110094 $





000
SAUS41 KOKX 230000
MTRNYC
SPECI KNYC 222359Z AUTO 01007KT 320V050 5SM -RA BR BKN015 OVC023
11/09 A2981 RMK AO2 P0001 T01110094 $





000
SAUS41 KOKX 222355
MTRMTP
METAR KMTP 222354Z AUTO 01019G30KT 13/11 A2965 RMK AO1 PK WND
01032/2323 PRESFR SLP040 P0026 60045 T01280111 10144 20122 58036





000
SAUS41 KOKX 222355
MTRMTP
METAR KMTP 222354Z AUTO 01019G30KT 13/11 A2965 RMK AO1 PK WND
01032/2323 PRESFR SLP040 P0026 60045 T01280111 10144 20122 58036





000
SAUS41 KOKX 222353
MTRNYC
METAR KNYC 222351Z AUTO 02008KT 310V050 5SM -RA BR BKN014 BKN020
OVC025 11/09 A2981 RMK AO2 SLP087 P0020 60045 T01110094 10139 20111
58015 $





000
SAUS41 KOKX 222353
MTRNYC
METAR KNYC 222351Z AUTO 02008KT 310V050 5SM -RA BR BKN014 BKN020
OVC025 11/09 A2981 RMK AO2 SLP087 P0020 60045 T01110094 10139 20111
58015 $





000
SAUS41 KOKX 222334
MTRNYC
SPECI KNYC 222333Z AUTO 36007KT 320V060 3SM RA BR BKN012 OVC018
11/09 A2982 RMK AO2 P0017 T01110094 $





000
SAUS41 KOKX 222301
MTRNYC
SPECI KNYC 222300Z AUTO 03007G16KT 340V050 2SM +RA BR BKN012 OVC019
11/09 A2984 RMK AO2 P0004 T01110094 $





000
SAUS41 KOKX 222301
MTRNYC
SPECI KNYC 222300Z AUTO 03007G16KT 340V050 2SM +RA BR BKN012 OVC019
11/09 A2984 RMK AO2 P0004 T01110094 $





000
SAUS41 KOKX 222255
MTRMTP
METAR KMTP 222254Z AUTO 02017G28KT 12/11 A2973 RMK AO1 PK WND
02030/2159 SLP066 P0010 T01220106





000
SAUS41 KOKX 222255
MTRMTP
METAR KMTP 222254Z AUTO 02017G28KT 12/11 A2973 RMK AO1 PK WND
02030/2159 SLP066 P0010 T01220106





000
SAUS41 KOKX 222252
MTRNYC
METAR KNYC 222251Z AUTO 36007G14KT 320V030 3SM RA BR BKN012 OVC018
11/09 A2984 RMK AO2 SLP097 P0013 T01110094 $





000
SAUS41 KOKX 222252
MTRNYC
METAR KNYC 222251Z AUTO 36007G14KT 320V030 3SM RA BR BKN012 OVC018
11/09 A2984 RMK AO2 SLP097 P0013 T01110094 $





000
SAUS41 KOKX 222209
MTRNYC
SPECI KNYC 222207Z AUTO 36008G18KT 310V040 3SM RA BR BKN013 OVC021
11/09 A2985 RMK AO2 P0005 T01110094 $





000
SAUS41 KOKX 222155
MTRMTP
METAR KMTP 222154Z AUTO 02016G28KT 13/11 A2977 RMK AO1 PK WND
02036/2105 SLP080 P0001 T01280106





000
SAUS41 KOKX 222153
MTRNYC
METAR KNYC 222151Z AUTO 04009KT 4SM RA BR BKN015 OVC021 11/09 A2985
RMK AO2 SLP101 P0011 T01110094 $





000
SAUS41 KOKX 222131
MTRNYC
SPECI KNYC 222130Z AUTO VRB06G16KT 2SM RA BR OVC016 12/09 A2985 RMK
AO2 P0007 T01170094 $





000
SAUS41 KOKX 222117
MTRNYC
SPECI KNYC 222116Z AUTO VRB05G18KT 1 3/4SM RA BR BKN016 OVC021 12/09
A2985 RMK AO2 P0003 T01170094 $





000
SAUS41 KOKX 222106
MTRNYC
SPECI KNYC 222104Z AUTO 03007KT 360V060 4SM -RA BR OVC020 12/09
A2986 RMK AO2 P0001 T01170094 $





000
SAUS41 KOKX 222055
MTRMTP
METAR KMTP 222054Z AUTO 02018G32KT 13/11 A2976 RMK AO1 PK WND
01032/2049 SLP076 P0006 60008 T01280111 58031





000
SAUS41 KOKX 222052
MTRNYC
METAR KNYC 222051Z AUTO 01010G19KT 310V050 2SM RA OVC022 12/09 A2986
RMK AO2 RAB46 SLP101 P0001 60001 T01220089 56010 $





000
SAUS41 KOKX 221955
MTRMTP
METAR KMTP 221954Z AUTO 02015G29KT 13/11 A2980 RMK AO1 PK WND
02030/1932 SLP090 P0002 T01330111





000
SAUS41 KOKX 221952
MTRNYC
METAR KNYC 221951Z AUTO 36010G16KT 10SM BKN021 OVC025 13/09 A2986
RMK AO2 SLP102 T01330089 $





000
SAUS41 KOKX 221855
MTRMTP
METAR KMTP 221854Z AUTO 02014G26KT 14/11 A2983 RMK AO1 PK WND
01029/1826 SLP100 T01390111





000
SAUS41 KOKX 221852
MTRNYC
METAR KNYC 221851Z AUTO 02013G22KT 10SM OVC021 13/09 A2988 RMK AO2
PK WND 05026/1841 RAB38E50 SLP108 P0000 T01330094 $





000
SAUS41 KOKX 221755
MTRMTP
METAR KMTP 221754Z AUTO 02015G27KT 14/11 A2985 RMK AO1 PK WND
01028/1705 SLP107 60005 T01440111 10156 20139 56023





000
SAUS41 KOKX 221755
MTRMTP
METAR KMTP 221754Z AUTO 02015G27KT 14/11 A2985 RMK AO1 PK WND
01028/1705 SLP107 60005 T01440111 10156 20139 56023





000
SAUS41 KOKX 221752
MTRNYC
METAR KNYC 221751Z AUTO 04010G18KT 010V090 10SM OVC022 14/10 A2989
RMK AO2 SLP112 60012 T01390100 10139 20122 58020 $





000
SAUS41 KOKX 221752
MTRNYC
METAR KNYC 221751Z AUTO 04010G18KT 010V090 10SM OVC022 14/10 A2989
RMK AO2 SLP112 60012 T01390100 10139 20122 58020 $





    US Dept of Commerce
    National Oceanic and Atmospheric Administration
    National Weather Service
    1325 East West Highway
    Silver Spring, MD 20910
    Page Author: NWS Internet Services Team
Disclaimer
Information Quality
Credits
Glossary
Privacy Policy
Freedom of Information Act (FOIA)
About Us
Career Opportunities